sensor_id;sensor_type;location;lat;lon;timestamp;P1;durP1;ratioP1;P2;durP2;ratioP2
14169;SDS011;63889;50.596;8.690;2023-02-19T00:01:17;4.57;;;3.13;;
14169;SDS011;63889;50.596;8.690;2023-02-19T00:04:04;7.25;;;3.42;;
14169;SDS011;63889;50.596;8.690;2023-02-19T00:06:32;5.22;;;3.40;;
14169;SDS011;63889;50.596;8.690;2023-02-19T00:08:58;4.35;;;3.00;;
14169;SDS011;63889;50.596;8.690;2023-02-19T00:11:26;4.40;;;3.40;;
14169;SDS011;63889;50.596;8.690;2023-02-19T00:13:53;6.82;;;3.05;;
14169;SDS011;63889;50.596;8.690;2023-02-19T00:16:22;4.05;;;3.00;;
14169;SDS011;63889;50.596;8.690;2023-02-19T00:18:50;5.28;;;3.20;;
14169;SDS011;63889;50.596;8.690;2023-02-19T00:21:17;4.03;;;3.00;;
14169;SDS011;63889;50.596;8.690;2023-02-19T00:23:47;5.82;;;3.50;;
14169;SDS011;63889;50.596;8.690;2023-02-19T00:26:14;4.53;;;3.30;;
14169;SDS011;63889;50.596;8.690;2023-02-19T00:28:39;3.90;;;2.97;;
14169;SDS011;63889;50.596;8.690;2023-02-19T00:31:05;6.82;;;2.92;;
14169;SDS011;63889;50.596;8.690;2023-02-19T00:33:32;4.68;;;3.20;;
14169;SDS011;63889;50.596;8.690;2023-02-19T00:35:59;5.53;;;3.50;;
14169;SDS011;63889;50.596;8.690;2023-02-19T00:38:25;5.05;;;3.67;;
14169;SDS011;63889;50.596;8.690;2023-02-19T00:40:51;5.15;;;3.30;;
14169;SDS011;63889;50.596;8.690;2023-02-19T00:43:17;4.95;;;3.38;;
14169;SDS011;63889;50.596;8.690;2023-02-19T00:45:42;4.95;;;3.53;;
14169;SDS011;63889;50.596;8.690;2023-02-19T00:48:08;7.75;;;4.38;;
14169;SDS011;63889;50.596;8.690;2023-02-19T00:50:33;5.43;;;3.58;;
14169;SDS011;63889;50.596;8.690;2023-02-19T00:52:59;5.88;;;4.13;;
14169;SDS011;63889;50.596;8.690;2023-02-19T00:55:24;5.65;;;3.80;;
14169;SDS011;63889;50.596;8.690;2023-02-19T00:57:53;4.78;;;3.50;;
14169;SDS011;63889;50.596;8.690;2023-02-19T01:00:19;6.25;;;4.35;;
14169;SDS011;63889;50.596;8.690;2023-02-19T01:02:44;5.97;;;3.80;;
14169;SDS011;63889;50.596;8.690;2023-02-19T01:05:10;5.65;;;3.90;;
14169;SDS011;63889;50.596;8.690;2023-02-19T01:07:36;6.43;;;4.00;;
14169;SDS011;63889;50.596;8.690;2023-02-19T01:10:02;4.38;;;3.03;;
14169;SDS011;63889;50.596;8.690;2023-02-19T01:12:28;5.00;;;3.50;;
14169;SDS011;63889;50.596;8.690;2023-02-19T01:14:55;5.88;;;3.65;;
14169;SDS011;63889;50.596;8.690;2023-02-19T01:17:21;4.00;;;3.30;;
14169;SDS011;63889;50.596;8.690;2023-02-19T01:19:46;9.75;;;3.28;;
14169;SDS011;63889;50.596;8.690;2023-02-19T01:22:12;5.63;;;3.38;;
14169;SDS011;63889;50.596;8.690;2023-02-19T01:24:37;3.88;;;3.08;;
14169;SDS011;63889;50.596;8.690;2023-02-19T01:27:03;8.40;;;2.63;;
14169;SDS011;63889;50.596;8.690;2023-02-19T01:29:29;4.07;;;2.58;;
14169;SDS011;63889;50.596;8.690;2023-02-19T01:31:55;3.17;;;2.50;;
14169;SDS011;63889;50.596;8.690;2023-02-19T01:34:20;3.42;;;2.55;;
14169;SDS011;63889;50.596;8.690;2023-02-19T01:36:46;2.33;;;2.00;;
14169;SDS011;63889;50.596;8.690;2023-02-19T01:39:11;3.00;;;2.10;;
14169;SDS011;63889;50.596;8.690;2023-02-19T01:41:38;3.08;;;2.38;;
14169;SDS011;63889;50.596;8.690;2023-02-19T01:46:36;3.85;;;2.03;;
14169;SDS011;63889;50.596;8.690;2023-02-19T01:49:24;2.92;;;2.15;;
14169;SDS011;63889;50.596;8.690;2023-02-19T01:51:53;2.42;;;1.95;;
14169;SDS011;63889;50.596;8.690;2023-02-19T01:54:23;2.97;;;1.90;;
14169;SDS011;63889;50.596;8.690;2023-02-19T01:56:52;5.70;;;1.95;;
14169;SDS011;63889;50.596;8.690;2023-02-19T01:59:18;2.67;;;1.88;;
14169;SDS011;63889;50.596;8.690;2023-02-19T02:01:44;3.72;;;2.25;;
14169;SDS011;63889;50.596;8.690;2023-02-19T02:04:10;3.58;;;1.90;;
14169;SDS011;63889;50.596;8.690;2023-02-19T02:06:48;2.80;;;2.33;;
14169;SDS011;63889;50.596;8.690;2023-02-19T02:09:18;3.13;;;2.15;;
14169;SDS011;63889;50.596;8.690;2023-02-19T02:12:03;2.60;;;1.98;;
14169;SDS011;63889;50.596;8.690;2023-02-19T02:14:30;3.42;;;2.08;;
14169;SDS011;63889;50.596;8.690;2023-02-19T02:17:19;4.68;;;2.45;;
14169;SDS011;63889;50.596;8.690;2023-02-19T02:20:00;2.58;;;2.10;;
14169;SDS011;63889;50.596;8.690;2023-02-19T02:22:41;2.47;;;2.00;;
14169;SDS011;63889;50.596;8.690;2023-02-19T02:25:47;3.72;;;2.42;;
14169;SDS011;63889;50.596;8.690;2023-02-19T02:28:57;2.55;;;1.98;;
14169;SDS011;63889;50.596;8.690;2023-02-19T02:31:53;1.98;;;1.40;;
14169;SDS011;63889;50.596;8.690;2023-02-19T02:34:24;2.53;;;1.75;;
14169;SDS011;63889;50.596;8.690;2023-02-19T02:37:05;2.42;;;1.80;;
14169;SDS011;63889;50.596;8.690;2023-02-19T02:39:33;5.35;;;1.90;;
14169;SDS011;63889;50.596;8.690;2023-02-19T02:42:01;2.75;;;1.98;;
14169;SDS011;63889;50.596;8.690;2023-02-19T02:44:45;3.10;;;1.88;;
14169;SDS011;63889;50.596;8.690;2023-02-19T02:47:30;5.22;;;1.70;;
14169;SDS011;63889;50.596;8.690;2023-02-19T02:50:41;1.95;;;1.65;;
14169;SDS011;63889;50.596;8.690;2023-02-19T02:53:03;2.08;;;1.60;;
14169;SDS011;63889;50.596;8.690;2023-02-19T02:55:51;2.53;;;1.67;;
14169;SDS011;63889;50.596;8.690;2023-02-19T02:58:18;1.50;;;1.35;;
14169;SDS011;63889;50.596;8.690;2023-02-19T03:00:46;2.08;;;1.52;;
14169;SDS011;63889;50.596;8.690;2023-02-19T03:03:34;2.00;;;1.58;;
14169;SDS011;63889;50.596;8.690;2023-02-19T03:06:04;1.60;;;1.23;;
14169;SDS011;63889;50.596;8.690;2023-02-19T03:11:43;1.48;;;1.33;;
14169;SDS011;63889;50.596;8.690;2023-02-19T03:14:34;1.88;;;1.40;;
14169;SDS011;63889;50.596;8.690;2023-02-19T03:17:26;1.73;;;1.20;;
14169;SDS011;63889;50.596;8.690;2023-02-19T03:20:16;1.38;;;1.27;;
14169;SDS011;63889;50.596;8.690;2023-02-19T03:22:45;1.23;;;1.13;;
14169;SDS011;63889;50.596;8.690;2023-02-19T03:25:14;2.67;;;1.35;;
14169;SDS011;63889;50.596;8.690;2023-02-19T03:28:03;1.05;;;0.80;;
14169;SDS011;63889;50.596;8.690;2023-02-19T03:30:32;3.03;;;0.90;;
14169;SDS011;63889;50.596;8.690;2023-02-19T03:33:12;0.65;;;0.60;;
14169;SDS011;63889;50.596;8.690;2023-02-19T03:35:40;0.60;;;0.60;;
14169;SDS011;63889;50.596;8.690;2023-02-19T03:38:41;0.50;;;0.40;;
14169;SDS011;63889;50.596;8.690;2023-02-19T03:41:12;0.60;;;0.40;;
14169;SDS011;63889;50.596;8.690;2023-02-19T03:43:59;0.40;;;0.40;;
14169;SDS011;63889;50.596;8.690;2023-02-19T03:55:02;0.77;;;0.50;;
14169;SDS011;63889;50.596;8.690;2023-02-19T04:06:03;1.35;;;0.70;;
14169;SDS011;63889;50.596;8.690;2023-02-19T04:08:34;1.02;;;0.90;;
14169;SDS011;63889;50.596;8.690;2023-02-19T04:11:01;0.90;;;0.60;;
14169;SDS011;63889;50.596;8.690;2023-02-19T04:13:29;1.30;;;0.90;;
14169;SDS011;63889;50.596;8.690;2023-02-19T04:16:00;0.85;;;0.85;;
14169;SDS011;63889;50.596;8.690;2023-02-19T04:18:32;1.05;;;0.80;;
14169;SDS011;63889;50.596;8.690;2023-02-19T04:21:02;0.70;;;0.70;;
14169;SDS011;63889;50.596;8.690;2023-02-19T04:23:30;1.00;;;0.90;;
14169;SDS011;63889;50.596;8.690;2023-02-19T04:26:02;1.10;;;0.90;;
14169;SDS011;63889;50.596;8.690;2023-02-19T04:28:29;0.90;;;0.77;;
14169;SDS011;63889;50.596;8.690;2023-02-19T04:30:55;5.15;;;0.90;;
14169;SDS011;63889;50.596;8.690;2023-02-19T04:33:21;0.73;;;0.73;;
14169;SDS011;63889;50.596;8.690;2023-02-19T04:35:46;1.17;;;0.70;;
14169;SDS011;63889;50.596;8.690;2023-02-19T04:38:11;0.93;;;0.80;;
14169;SDS011;63889;50.596;8.690;2023-02-19T04:40:38;2.70;;;1.00;;
14169;SDS011;63889;50.596;8.690;2023-02-19T04:43:03;0.82;;;0.73;;
14169;SDS011;63889;50.596;8.690;2023-02-19T04:45:29;0.60;;;0.60;;
14169;SDS011;63889;50.596;8.690;2023-02-19T04:47:56;1.30;;;0.82;;
14169;SDS011;63889;50.596;8.690;2023-02-19T04:50:22;3.03;;;0.82;;
14169;SDS011;63889;50.596;8.690;2023-02-19T04:52:48;2.83;;;0.82;;
14169;SDS011;63889;50.596;8.690;2023-02-19T04:55:13;1.08;;;0.73;;
14169;SDS011;63889;50.596;8.690;2023-02-19T04:57:39;0.93;;;0.70;;
14169;SDS011;63889;50.596;8.690;2023-02-19T05:00:05;0.70;;;0.70;;
14169;SDS011;63889;50.596;8.690;2023-02-19T05:05:54;0.77;;;0.60;;
14169;SDS011;63889;50.596;8.690;2023-02-19T05:08:19;1.20;;;0.77;;
14169;SDS011;63889;50.596;8.690;2023-02-19T05:10:45;2.80;;;1.02;;
14169;SDS011;63889;50.596;8.690;2023-02-19T05:13:10;1.33;;;0.70;;
14169;SDS011;63889;50.596;8.690;2023-02-19T05:15:36;1.77;;;0.80;;
14169;SDS011;63889;50.596;8.690;2023-02-19T05:18:01;2.55;;;0.98;;
14169;SDS011;63889;50.596;8.690;2023-02-19T05:20:27;0.70;;;0.70;;
14169;SDS011;63889;50.596;8.690;2023-02-19T05:22:53;1.83;;;0.88;;
14169;SDS011;63889;50.596;8.690;2023-02-19T05:25:18;1.45;;;0.88;;
14169;SDS011;63889;50.596;8.690;2023-02-19T05:27:44;1.60;;;0.60;;
14169;SDS011;63889;50.596;8.690;2023-02-19T05:30:09;3.35;;;1.10;;
14169;SDS011;63889;50.596;8.690;2023-02-19T05:32:35;1.13;;;0.80;;
14169;SDS011;63889;50.596;8.690;2023-02-19T05:35:01;1.80;;;1.05;;
14169;SDS011;63889;50.596;8.690;2023-02-19T05:37:27;1.27;;;0.70;;
14169;SDS011;63889;50.596;8.690;2023-02-19T05:39:53;1.48;;;1.02;;
14169;SDS011;63889;50.596;8.690;2023-02-19T05:42:18;2.85;;;1.20;;
14169;SDS011;63889;50.596;8.690;2023-02-19T05:44:44;3.78;;;1.15;;
14169;SDS011;63889;50.596;8.690;2023-02-19T05:47:09;1.90;;;0.85;;
14169;SDS011;63889;50.596;8.690;2023-02-19T05:49:35;4.38;;;1.15;;
14169;SDS011;63889;50.596;8.690;2023-02-19T05:52:00;2.17;;;1.00;;
14169;SDS011;63889;50.596;8.690;2023-02-19T05:54:29;2.97;;;1.05;;
14169;SDS011;63889;50.596;8.690;2023-02-19T05:56:55;1.55;;;0.90;;
14169;SDS011;63889;50.596;8.690;2023-02-19T05:59:22;1.85;;;1.10;;
14169;SDS011;63889;50.596;8.690;2023-02-19T06:01:49;1.48;;;0.90;;
14169;SDS011;63889;50.596;8.690;2023-02-19T06:04:16;4.55;;;1.42;;
14169;SDS011;63889;50.596;8.690;2023-02-19T06:06:43;2.50;;;1.67;;
14169;SDS011;63889;50.596;8.690;2023-02-19T06:09:10;3.17;;;1.58;;
14169;SDS011;63889;50.596;8.690;2023-02-19T06:11:36;3.10;;;1.63;;
14169;SDS011;63889;50.596;8.690;2023-02-19T06:14:01;2.03;;;1.38;;
14169;SDS011;63889;50.596;8.690;2023-02-19T06:16:27;3.42;;;1.95;;
14169;SDS011;63889;50.596;8.690;2023-02-19T06:18:53;4.53;;;1.90;;
14169;SDS011;63889;50.596;8.690;2023-02-19T06:21:19;4.05;;;2.13;;
14169;SDS011;63889;50.596;8.690;2023-02-19T06:23:44;3.25;;;2.45;;
14169;SDS011;63889;50.596;8.690;2023-02-19T06:26:12;4.97;;;2.10;;
14169;SDS011;63889;50.596;8.690;2023-02-19T06:28:43;4.45;;;2.63;;
14169;SDS011;63889;50.596;8.690;2023-02-19T06:31:10;4.95;;;2.55;;
14169;SDS011;63889;50.596;8.690;2023-02-19T06:33:36;6.63;;;3.22;;
14169;SDS011;63889;50.596;8.690;2023-02-19T06:36:06;6.22;;;2.83;;
14169;SDS011;63889;50.596;8.690;2023-02-19T06:38:36;6.23;;;3.60;;
14169;SDS011;63889;50.596;8.690;2023-02-19T06:41:03;6.55;;;3.00;;
14169;SDS011;63889;50.596;8.690;2023-02-19T06:43:30;9.00;;;3.10;;
14169;SDS011;63889;50.596;8.690;2023-02-19T06:45:57;7.55;;;3.58;;
14169;SDS011;63889;50.596;8.690;2023-02-19T06:48:24;7.47;;;3.63;;
14169;SDS011;63889;50.596;8.690;2023-02-19T06:50:50;8.25;;;3.70;;
14169;SDS011;63889;50.596;8.690;2023-02-19T06:53:16;9.00;;;3.75;;
14169;SDS011;63889;50.596;8.690;2023-02-19T06:55:41;5.90;;;3.10;;
14169;SDS011;63889;50.596;8.690;2023-02-19T06:58:07;7.90;;;3.67;;
14169;SDS011;63889;50.596;8.690;2023-02-19T07:00:33;7.85;;;3.00;;
14169;SDS011;63889;50.596;8.690;2023-02-19T07:02:58;6.63;;;2.95;;
14169;SDS011;63889;50.596;8.690;2023-02-19T07:05:24;6.40;;;3.10;;
14169;SDS011;63889;50.596;8.690;2023-02-19T07:07:50;4.90;;;2.78;;
14169;SDS011;63889;50.596;8.690;2023-02-19T07:10:15;7.07;;;2.88;;
14169;SDS011;63889;50.596;8.690;2023-02-19T07:12:41;15.88;;;3.80;;
14169;SDS011;63889;50.596;8.690;2023-02-19T07:15:06;6.07;;;3.17;;
14169;SDS011;63889;50.596;8.690;2023-02-19T07:17:33;6.68;;;3.35;;
14169;SDS011;63889;50.596;8.690;2023-02-19T07:19:59;5.50;;;3.03;;
14169;SDS011;63889;50.596;8.690;2023-02-19T07:22:24;5.70;;;3.08;;
14169;SDS011;63889;50.596;8.690;2023-02-19T07:24:50;5.05;;;3.00;;
14169;SDS011;63889;50.596;8.690;2023-02-19T07:27:16;5.13;;;2.78;;
14169;SDS011;63889;50.596;8.690;2023-02-19T07:29:41;11.02;;;4.50;;
14169;SDS011;63889;50.596;8.690;2023-02-19T07:32:07;11.05;;;5.00;;
14169;SDS011;63889;50.596;8.690;2023-02-19T07:34:32;9.82;;;5.35;;
14169;SDS011;63889;50.596;8.690;2023-02-19T07:36:58;7.18;;;3.72;;
14169;SDS011;63889;50.596;8.690;2023-02-19T07:39:23;7.03;;;3.10;;
14169;SDS011;63889;50.596;8.690;2023-02-19T07:41:49;5.50;;;2.97;;
14169;SDS011;63889;50.596;8.690;2023-02-19T07:44:14;7.45;;;2.92;;
14169;SDS011;63889;50.596;8.690;2023-02-19T07:46:40;3.55;;;2.47;;
14169;SDS011;63889;50.596;8.690;2023-02-19T07:49:07;6.10;;;3.13;;
14169;SDS011;63889;50.596;8.690;2023-02-19T07:51:32;10.95;;;4.65;;
14169;SDS011;63889;50.596;8.690;2023-02-19T07:53:58;5.43;;;3.00;;
14169;SDS011;63889;50.596;8.690;2023-02-19T07:56:23;6.10;;;2.78;;
14169;SDS011;63889;50.596;8.690;2023-02-19T07:58:49;5.88;;;3.13;;
14169;SDS011;63889;50.596;8.690;2023-02-19T08:04:18;8.32;;;3.33;;
14169;SDS011;63889;50.596;8.690;2023-02-19T08:06:43;9.98;;;4.20;;
14169;SDS011;63889;50.596;8.690;2023-02-19T08:09:09;11.38;;;5.00;;
14169;SDS011;63889;50.596;8.690;2023-02-19T08:11:34;14.82;;;6.10;;
14169;SDS011;63889;50.596;8.690;2023-02-19T08:14:18;7.50;;;3.13;;
14169;SDS011;63889;50.596;8.690;2023-02-19T08:16:48;6.72;;;3.47;;
14169;SDS011;63889;50.596;8.690;2023-02-19T08:19:14;7.03;;;3.13;;
14169;SDS011;63889;50.596;8.690;2023-02-19T08:21:40;5.30;;;2.88;;
14169;SDS011;63889;50.596;8.690;2023-02-19T08:24:05;8.98;;;3.63;;
14169;SDS011;63889;50.596;8.690;2023-02-19T08:26:31;5.10;;;2.45;;
14169;SDS011;63889;50.596;8.690;2023-02-19T08:28:57;4.90;;;2.80;;
14169;SDS011;63889;50.596;8.690;2023-02-19T08:31:23;5.50;;;3.20;;
14169;SDS011;63889;50.596;8.690;2023-02-19T08:33:49;3.45;;;2.40;;
14169;SDS011;63889;50.596;8.690;2023-02-19T08:36:15;4.40;;;2.60;;
14169;SDS011;63889;50.596;8.690;2023-02-19T08:38:40;5.72;;;2.65;;
14169;SDS011;63889;50.596;8.690;2023-02-19T08:41:06;5.57;;;2.53;;
14169;SDS011;63889;50.596;8.690;2023-02-19T08:43:34;5.63;;;2.75;;
14169;SDS011;63889;50.596;8.690;2023-02-19T08:46:00;3.85;;;2.20;;
14169;SDS011;63889;50.596;8.690;2023-02-19T08:48:26;4.95;;;2.45;;
14169;SDS011;63889;50.596;8.690;2023-02-19T08:50:55;3.83;;;2.70;;
14169;SDS011;63889;50.596;8.690;2023-02-19T08:53:22;3.78;;;2.17;;
14169;SDS011;63889;50.596;8.690;2023-02-19T08:55:48;5.38;;;2.80;;
14169;SDS011;63889;50.596;8.690;2023-02-19T08:58:14;4.07;;;2.90;;
14169;SDS011;63889;50.596;8.690;2023-02-19T09:00:39;5.72;;;3.40;;
14169;SDS011;63889;50.596;8.690;2023-02-19T09:03:05;8.07;;;3.45;;
14169;SDS011;63889;50.596;8.690;2023-02-19T09:05:30;7.65;;;3.25;;
14169;SDS011;63889;50.596;8.690;2023-02-19T09:07:56;6.03;;;3.58;;
14169;SDS011;63889;50.596;8.690;2023-02-19T09:10:21;6.43;;;3.35;;
14169;SDS011;63889;50.596;8.690;2023-02-19T09:12:47;9.77;;;4.13;;
14169;SDS011;63889;50.596;8.690;2023-02-19T09:15:13;11.32;;;4.60;;
14169;SDS011;63889;50.596;8.690;2023-02-19T09:17:38;8.90;;;4.55;;
14169;SDS011;63889;50.596;8.690;2023-02-19T09:20:04;12.13;;;4.57;;
14169;SDS011;63889;50.596;8.690;2023-02-19T09:22:30;8.82;;;4.97;;
14169;SDS011;63889;50.596;8.690;2023-02-19T09:24:55;12.60;;;5.28;;
14169;SDS011;63889;50.596;8.690;2023-02-19T09:27:21;7.85;;;4.60;;
14169;SDS011;63889;50.596;8.690;2023-02-19T09:33:03;8.73;;;4.47;;
14169;SDS011;63889;50.596;8.690;2023-02-19T09:35:29;9.48;;;4.95;;
14169;SDS011;63889;50.596;8.690;2023-02-19T09:37:56;9.98;;;4.60;;
14169;SDS011;63889;50.596;8.690;2023-02-19T09:40:23;7.28;;;3.78;;
14169;SDS011;63889;50.596;8.690;2023-02-19T09:42:49;8.70;;;4.38;;
14169;SDS011;63889;50.596;8.690;2023-02-19T09:45:21;9.20;;;4.18;;
14169;SDS011;63889;50.596;8.690;2023-02-19T09:47:48;8.27;;;4.40;;
14169;SDS011;63889;50.596;8.690;2023-02-19T09:50:20;7.40;;;3.95;;
14169;SDS011;63889;50.596;8.690;2023-02-19T09:52:52;13.95;;;6.18;;
14169;SDS011;63889;50.596;8.690;2023-02-19T09:55:33;7.32;;;4.20;;
14169;SDS011;63889;50.596;8.690;2023-02-19T10:00:55;6.38;;;4.07;;
14169;SDS011;63889;50.596;8.690;2023-02-19T10:03:29;9.63;;;4.28;;
14169;SDS011;63889;50.596;8.690;2023-02-19T10:06:05;11.40;;;4.53;;
14169;SDS011;63889;50.596;8.690;2023-02-19T10:08:35;7.75;;;4.57;;
14169;SDS011;63889;50.596;8.690;2023-02-19T10:11:01;15.00;;;5.93;;
14169;SDS011;63889;50.596;8.690;2023-02-19T10:13:30;12.70;;;5.65;;
14169;SDS011;63889;50.596;8.690;2023-02-19T10:15:59;9.52;;;4.57;;
14169;SDS011;63889;50.596;8.690;2023-02-19T10:18:30;7.25;;;4.03;;
14169;SDS011;63889;50.596;8.690;2023-02-19T10:21:05;9.07;;;4.65;;
14169;SDS011;63889;50.596;8.690;2023-02-19T10:23:32;9.77;;;5.15;;
14169;SDS011;63889;50.596;8.690;2023-02-19T10:25:58;8.20;;;5.13;;
14169;SDS011;63889;50.596;8.690;2023-02-19T10:28:25;11.15;;;6.93;;
14169;SDS011;63889;50.596;8.690;2023-02-19T10:30:54;10.30;;;4.90;;
14169;SDS011;63889;50.596;8.690;2023-02-19T10:33:21;8.60;;;4.90;;
14169;SDS011;63889;50.596;8.690;2023-02-19T10:38:20;10.57;;;5.40;;
14169;SDS011;63889;50.596;8.690;2023-02-19T10:40:50;8.45;;;5.05;;
14169;SDS011;63889;50.596;8.690;2023-02-19T10:43:23;13.23;;;5.53;;
14169;SDS011;63889;50.596;8.690;2023-02-19T10:45:57;9.32;;;5.05;;
14169;SDS011;63889;50.596;8.690;2023-02-19T10:48:30;11.20;;;6.03;;
14169;SDS011;63889;50.596;8.690;2023-02-19T10:51:03;19.55;;;7.28;;
14169;SDS011;63889;50.596;8.690;2023-02-19T10:53:46;11.32;;;4.60;;
14169;SDS011;63889;50.596;8.690;2023-02-19T10:56:15;8.38;;;4.00;;
14169;SDS011;63889;50.596;8.690;2023-02-19T10:58:48;8.25;;;3.80;;
14169;SDS011;63889;50.596;8.690;2023-02-19T11:01:15;10.57;;;3.47;;
14169;SDS011;63889;50.596;8.690;2023-02-19T11:03:43;9.10;;;3.90;;
14169;SDS011;63889;50.596;8.690;2023-02-19T11:06:09;9.30;;;4.30;;
14169;SDS011;63889;50.596;8.690;2023-02-19T11:08:47;7.50;;;4.18;;
14169;SDS011;63889;50.596;8.690;2023-02-19T11:11:23;7.55;;;4.07;;
14169;SDS011;63889;50.596;8.690;2023-02-19T11:13:54;13.48;;;3.83;;
14169;SDS011;63889;50.596;8.690;2023-02-19T11:16:22;7.43;;;3.85;;
14169;SDS011;63889;50.596;8.690;2023-02-19T11:18:52;7.95;;;4.00;;
14169;SDS011;63889;50.596;8.690;2023-02-19T11:26:52;6.50;;;3.33;;
14169;SDS011;63889;50.596;8.690;2023-02-19T11:29:19;8.95;;;3.63;;
14169;SDS011;63889;50.596;8.690;2023-02-19T11:31:47;7.90;;;3.70;;
14169;SDS011;63889;50.596;8.690;2023-02-19T11:36:39;7.28;;;3.60;;
14169;SDS011;63889;50.596;8.690;2023-02-19T11:44:23;6.97;;;3.45;;
14169;SDS011;63889;50.596;8.690;2023-02-19T11:55:24;11.38;;;3.80;;
14169;SDS011;63889;50.596;8.690;2023-02-19T12:01:42;7.05;;;3.10;;
14169;SDS011;63889;50.596;8.690;2023-02-19T12:12:58;9.93;;;3.58;;
14169;SDS011;63889;50.596;8.690;2023-02-19T12:15:43;4.00;;;2.50;;
14169;SDS011;63889;50.596;8.690;2023-02-19T12:21:36;5.35;;;2.35;;
14169;SDS011;63889;50.596;8.690;2023-02-19T12:27:14;3.60;;;2.05;;
14169;SDS011;63889;50.596;8.690;2023-02-19T12:35:41;6.82;;;2.70;;
14169;SDS011;63889;50.596;8.690;2023-02-19T12:38:18;4.88;;;2.50;;
14169;SDS011;63889;50.596;8.690;2023-02-19T12:40:52;9.45;;;3.13;;
14169;SDS011;63889;50.596;8.690;2023-02-19T12:43:34;5.95;;;3.17;;
14169;SDS011;63889;50.596;8.690;2023-02-19T12:46:11;7.47;;;3.05;;
14169;SDS011;63889;50.596;8.690;2023-02-19T12:54:05;6.00;;;3.33;;
14169;SDS011;63889;50.596;8.690;2023-02-19T13:04:51;6.25;;;2.92;;
14169;SDS011;63889;50.596;8.690;2023-02-19T13:07:19;5.78;;;3.15;;
14169;SDS011;63889;50.596;8.690;2023-02-19T13:09:56;3.83;;;2.92;;
14169;SDS011;63889;50.596;8.690;2023-02-19T13:12:28;6.38;;;3.00;;
14169;SDS011;63889;50.596;8.690;2023-02-19T13:15:08;11.35;;;4.28;;
14169;SDS011;63889;50.596;8.690;2023-02-19T13:17:48;7.22;;;3.20;;
14169;SDS011;63889;50.596;8.690;2023-02-19T13:22:51;5.60;;;3.35;;
14169;SDS011;63889;50.596;8.690;2023-02-19T13:25:53;5.45;;;3.30;;
14169;SDS011;63889;50.596;8.690;2023-02-19T13:34:19;2.95;;;1.70;;
14169;SDS011;63889;50.596;8.690;2023-02-19T13:37:05;1.73;;;1.30;;
14169;SDS011;63889;50.596;8.690;2023-02-19T13:39:31;3.95;;;1.55;;
14169;SDS011;63889;50.596;8.690;2023-02-19T13:41:58;4.05;;;1.50;;
14169;SDS011;63889;50.596;8.690;2023-02-19T13:44:30;4.35;;;1.25;;
14169;SDS011;63889;50.596;8.690;2023-02-19T13:46:58;1.58;;;1.25;;
14169;SDS011;63889;50.596;8.690;2023-02-19T13:51:59;2.28;;;1.17;;
14169;SDS011;63889;50.596;8.690;2023-02-19T13:54:30;3.75;;;1.42;;
14169;SDS011;63889;50.596;8.690;2023-02-19T13:59:41;1.58;;;0.98;;
14169;SDS011;63889;50.596;8.690;2023-02-19T14:02:10;2.42;;;1.30;;
14169;SDS011;63889;50.596;8.690;2023-02-19T14:09:50;3.60;;;0.98;;
14169;SDS011;63889;50.596;8.690;2023-02-19T14:12:17;2.60;;;0.88;;
14169;SDS011;63889;50.596;8.690;2023-02-19T14:14:48;2.28;;;0.90;;
14169;SDS011;63889;50.596;8.690;2023-02-19T14:20:03;2.92;;;1.00;;
14169;SDS011;63889;50.596;8.690;2023-02-19T14:23:24;2.70;;;1.10;;
14169;SDS011;63889;50.596;8.690;2023-02-19T14:25:54;3.53;;;1.30;;
14169;SDS011;63889;50.596;8.690;2023-02-19T14:28:30;5.78;;;1.77;;
14169;SDS011;63889;50.596;8.690;2023-02-19T14:33:45;1.58;;;0.85;;
14169;SDS011;63889;50.596;8.690;2023-02-19T14:36:26;4.68;;;1.00;;
14169;SDS011;63889;50.596;8.690;2023-02-19T14:39:00;2.45;;;0.70;;
14169;SDS011;63889;50.596;8.690;2023-02-19T14:41:29;0.80;;;0.60;;
14169;SDS011;63889;50.596;8.690;2023-02-19T14:43:57;1.75;;;1.00;;
14169;SDS011;63889;50.596;8.690;2023-02-19T14:46:27;2.42;;;1.05;;
14169;SDS011;63889;50.596;8.690;2023-02-19T14:48:57;2.70;;;1.00;;
14169;SDS011;63889;50.596;8.690;2023-02-19T14:51:29;1.00;;;0.82;;
14169;SDS011;63889;50.596;8.690;2023-02-19T14:54:03;2.72;;;0.93;;
14169;SDS011;63889;50.596;8.690;2023-02-19T14:56:36;2.05;;;1.00;;
14169;SDS011;63889;50.596;8.690;2023-02-19T15:01:37;1.33;;;0.95;;
14169;SDS011;63889;50.596;8.690;2023-02-19T15:04:03;2.65;;;1.00;;
14169;SDS011;63889;50.596;8.690;2023-02-19T15:06:30;5.18;;;1.45;;
14169;SDS011;63889;50.596;8.690;2023-02-19T15:08:59;3.97;;;1.52;;
14169;SDS011;63889;50.596;8.690;2023-02-19T15:11:28;3.65;;;1.30;;
14169;SDS011;63889;50.596;8.690;2023-02-19T15:13:57;2.13;;;1.45;;
14169;SDS011;63889;50.596;8.690;2023-02-19T15:19:35;4.20;;;1.98;;
14169;SDS011;63889;50.596;8.690;2023-02-19T15:22:03;2.78;;;1.67;;
14169;SDS011;63889;50.596;8.690;2023-02-19T15:24:29;4.07;;;1.77;;
14169;SDS011;63889;50.596;8.690;2023-02-19T15:26:54;2.78;;;1.70;;
14169;SDS011;63889;50.596;8.690;2023-02-19T15:29:21;3.30;;;1.92;;
14169;SDS011;63889;50.596;8.690;2023-02-19T15:31:52;4.18;;;2.08;;
14169;SDS011;63889;50.596;8.690;2023-02-19T15:34:23;5.57;;;2.40;;
14169;SDS011;63889;50.596;8.690;2023-02-19T15:37:01;4.95;;;2.30;;
14169;SDS011;63889;50.596;8.690;2023-02-19T15:39:34;5.13;;;2.30;;
14169;SDS011;63889;50.596;8.690;2023-02-19T15:42:05;5.38;;;2.83;;
14169;SDS011;63889;50.596;8.690;2023-02-19T15:44:48;7.20;;;2.50;;
14169;SDS011;63889;50.596;8.690;2023-02-19T15:47:20;5.55;;;2.45;;
14169;SDS011;63889;50.596;8.690;2023-02-19T15:50:00;8.07;;;3.58;;
14169;SDS011;63889;50.596;8.690;2023-02-19T16:03:44;6.63;;;3.65;;
14169;SDS011;63889;50.596;8.690;2023-02-19T16:06:14;7.68;;;3.38;;
14169;SDS011;63889;50.596;8.690;2023-02-19T16:08:45;4.55;;;2.90;;
14169;SDS011;63889;50.596;8.690;2023-02-19T16:19:23;11.43;;;4.32;;
14169;SDS011;63889;50.596;8.690;2023-02-19T16:21:53;9.95;;;4.28;;
14169;SDS011;63889;50.596;8.690;2023-02-19T16:24:24;9.43;;;4.65;;
14169;SDS011;63889;50.596;8.690;2023-02-19T16:27:01;10.03;;;3.90;;
14169;SDS011;63889;50.596;8.690;2023-02-19T16:29:32;9.63;;;4.15;;
14169;SDS011;63889;50.596;8.690;2023-02-19T16:32:02;6.95;;;4.00;;
14169;SDS011;63889;50.596;8.690;2023-02-19T16:34:30;10.32;;;3.95;;
14169;SDS011;63889;50.596;8.690;2023-02-19T16:37:28;9.55;;;4.68;;
14169;SDS011;63889;50.596;8.690;2023-02-19T16:40:18;10.07;;;3.95;;
14169;SDS011;63889;50.596;8.690;2023-02-19T16:45:15;8.70;;;4.43;;
14169;SDS011;63889;50.596;8.690;2023-02-19T16:47:41;7.15;;;3.22;;
14169;SDS011;63889;50.596;8.690;2023-02-19T16:50:23;10.52;;;3.92;;
14169;SDS011;63889;50.596;8.690;2023-02-19T16:52:51;6.28;;;3.20;;
14169;SDS011;63889;50.596;8.690;2023-02-19T16:55:21;11.05;;;4.47;;
14169;SDS011;63889;50.596;8.690;2023-02-19T16:57:47;7.63;;;3.60;;
14169;SDS011;63889;50.596;8.690;2023-02-19T17:02:44;10.52;;;4.18;;
14169;SDS011;63889;50.596;8.690;2023-02-19T17:05:11;7.63;;;4.35;;
14169;SDS011;63889;50.596;8.690;2023-02-19T17:07:36;9.75;;;5.05;;
14169;SDS011;63889;50.596;8.690;2023-02-19T17:10:02;8.50;;;3.80;;
14169;SDS011;63889;50.596;8.690;2023-02-19T17:12:28;9.60;;;3.60;;
14169;SDS011;63889;50.596;8.690;2023-02-19T17:14:53;6.72;;;3.60;;
14169;SDS011;63889;50.596;8.690;2023-02-19T17:17:19;7.82;;;3.97;;
14169;SDS011;63889;50.596;8.690;2023-02-19T17:19:44;6.93;;;3.60;;
14169;SDS011;63889;50.596;8.690;2023-02-19T17:22:10;11.20;;;4.47;;
14169;SDS011;63889;50.596;8.690;2023-02-19T17:24:40;14.38;;;4.22;;
14169;SDS011;63889;50.596;8.690;2023-02-19T17:27:08;8.05;;;4.00;;
14169;SDS011;63889;50.596;8.690;2023-02-19T17:29:36;11.80;;;4.50;;
14169;SDS011;63889;50.596;8.690;2023-02-19T17:32:01;11.68;;;4.40;;
14169;SDS011;63889;50.596;8.690;2023-02-19T17:34:27;8.68;;;4.32;;